Time;durP1;ratioP1;P1;durP2;ratioP2;P2;SDS_P1;SDS_P2;PMS_P1;PMS_P2;Temp;Humidity;BMP_temperature;BMP_pressure;BME280_temperature;BME280_humidity;BME280_pressure;Samples;Min_cycle;Max_cycle;Signal;HPM_P1;HPM_P2
2022/06/28 00:00:13;;;;;;;8.50;5.75;;;14.20;99.90;;;;;;5038464;28;20037;-61
2022/06/28 00:02:39;;;;;;;9.95;5.75;;;14.30;99.90;;;;;;5049974;28;20041;-61
2022/06/28 00:05:06;;;;;;;7.53;5.72;;;14.30;99.90;;;;;;5041285;28;20041;-61
2022/06/28 00:07:31;;;;;;;7.70;5.80;;;14.20;99.90;;;;;;5038268;28;20033;-62
2022/06/28 00:09:57;;;;;;;8.23;5.57;;;14.20;99.90;;;;;;5045050;28;20033;-62
2022/06/28 00:12:23;;;;;;;9.50;5.78;;;14.20;99.90;;;;;;5053899;28;20143;-61
2022/06/28 00:17:33;;;;;;;;;;;14.20;99.90;;;;;;5050290;28;20049;-62
2022/06/28 00:19:59;;;;;;;8.43;6.18;;;14.20;99.90;;;;;;5029451;28;20011;-62
2022/06/28 00:22:24;;;;;;;8.55;5.78;;;14.10;99.90;;;;;;5025113;28;20459;-61
2022/06/28 00:24:50;;;;;;;11.10;6.20;;;14.10;99.90;;;;;;5027556;28;20040;-61
2022/06/28 00:27:17;;;;;;;10.32;6.10;;;14.10;99.90;;;;;;5018211;28;20049;-61
2022/06/28 00:29:43;;;;;;;8.80;5.90;;;14.00;99.90;;;;;;5026098;28;20052;-61
2022/06/28 00:32:09;;;;;;;7.90;5.65;;;14.10;99.90;;;;;;5022629;28;20037;-61
2022/06/28 00:34:34;;;;;;;9.48;5.80;;;14.00;99.90;;;;;;5040308;28;20037;-62
2022/06/28 00:37:00;;;;;;;8.20;5.65;;;14.00;99.90;;;;;;5047305;28;20079;-61
2022/06/28 00:39:26;;;;;;;7.68;5.47;;;14.00;99.90;;;;;;5040798;28;20446;-62
2022/06/28 00:41:52;;;;;;;8.30;5.95;;;14.00;99.90;;;;;;5038100;28;20041;-62
2022/06/28 00:44:19;;;;;;;7.93;5.65;;;14.00;99.90;;;;;;5040835;28;20369;-62
2022/06/28 00:46:47;;;;;;;8.50;5.90;;;13.90;99.90;;;;;;5040878;28;20037;-62
2022/06/28 00:49:13;;;;;;;7.90;6.07;;;13.90;99.90;;;;;;5025230;28;20055;-62
2022/06/28 00:51:39;;;;;;;8.13;5.88;;;13.90;99.90;;;;;;5049725;28;20029;-62
2022/06/28 00:54:05;;;;;;;9.20;6.32;;;13.90;99.90;;;;;;5027983;28;20570;-63
2022/06/28 00:56:31;;;;;;;11.52;6.40;;;13.80;99.90;;;;;;5024181;28;20040;-61
2022/06/28 00:58:57;;;;;;;10.00;6.25;;;13.90;99.90;;;;;;5031472;28;20042;-61
2022/06/28 01:01:25;;;;;;;9.13;5.97;;;13.80;99.90;;;;;;5016612;28;20092;-62
2022/06/28 01:03:51;;;;;;;8.10;5.55;;;13.80;99.90;;;;;;5032219;28;20374;-61
2022/06/28 01:06:17;;;;;;;9.77;5.72;;;13.90;99.90;;;;;;5024591;28;20487;-61
2022/06/28 01:08:45;;;;;;;8.25;6.03;;;13.80;99.90;;;;;;5041376;28;20048;-63
2022/06/28 01:11:21;;;;;;;10.20;6.50;;;13.80;99.90;;;;;;5035372;28;20033;-62
2022/06/28 01:13:57;;;;;;;9.57;6.50;;;13.80;99.90;;;;;;5009738;28;20056;-62
2022/06/28 01:16:23;;;;;;;8.98;6.13;;;13.70;99.90;;;;;;5044906;28;20352;-61
2022/06/28 01:18:49;;;;;;;9.73;5.82;;;13.70;99.90;;;;;;5025609;28;20045;-61
2022/06/28 01:21:16;;;;;;;8.02;6.20;;;13.70;99.90;;;;;;5032745;28;20081;-62
2022/06/28 01:23:43;;;;;;;8.30;6.03;;;13.70;99.90;;;;;;5031288;28;20037;-62
2022/06/28 01:26:14;;;;;;;10.30;6.43;;;13.60;99.90;;;;;;5015204;28;20057;-61
2022/06/28 01:28:42;;;;;;;10.18;6.40;;;13.60;99.90;;;;;;5016615;28;20125;-61
2022/06/28 01:31:08;;;;;;;10.60;6.70;;;13.60;99.90;;;;;;5034897;28;20042;-61
2022/06/28 01:33:36;;;;;;;8.70;6.65;;;13.50;99.90;;;;;;5034920;28;20041;-60
2022/06/28 01:36:07;;;;;;;8.65;6.88;;;13.50;99.90;;;;;;5032084;28;20041;-61
2022/06/28 01:38:33;;;;;;;8.77;6.93;;;13.40;99.90;;;;;;5025850;28;20048;-61
2022/06/28 01:40:59;;;;;;;10.77;7.10;;;13.50;99.90;;;;;;5034397;28;20033;-62
2022/06/28 01:43:26;;;;;;;10.10;6.78;;;13.30;99.90;;;;;;5032883;28;20099;-61
2022/06/28 01:45:53;;;;;;;10.85;7.10;;;13.30;99.90;;;;;;5014737;28;20038;-61
2022/06/28 01:48:20;;;;;;;9.65;7.07;;;13.30;99.90;;;;;;5032535;28;20462;-61
2022/06/28 01:50:46;;;;;;;9.77;7.63;;;13.20;99.90;;;;;;5034481;28;20046;-62
2022/06/28 01:53:12;;;;;;;10.48;7.03;;;13.30;99.90;;;;;;5034245;28;20033;-62
2022/06/28 01:55:38;;;;;;;9.63;7.38;;;13.20;99.90;;;;;;5034368;28;20094;-62
2022/06/28 01:58:05;;;;;;;9.77;6.90;;;13.20;99.90;;;;;;5033998;28;20510;-61
2022/06/28 02:00:30;;;;;;;8.70;6.57;;;13.20;99.90;;;;;;5034505;28;20056;-62
2022/06/28 02:02:56;;;;;;;8.63;6.60;;;13.20;99.90;;;;;;5034191;28;20041;-62
2022/06/28 02:05:22;;;;;;;8.45;6.53;;;13.30;99.90;;;;;;5016472;28;20046;-62
2022/06/28 02:07:49;;;;;;;9.85;6.55;;;13.40;99.90;;;;;;5034196;28;20030;-62
2022/06/28 02:10:19;;;;;;;10.13;6.63;;;13.30;99.90;;;;;;5034083;28;20044;-62
2022/06/28 02:12:45;;;;;;;8.52;6.38;;;13.30;99.90;;;;;;5033527;28;20382;-63
2022/06/28 02:15:12;;;;;;;10.68;7.00;;;13.30;99.90;;;;;;5016110;28;20045;-61
2022/06/28 02:17:38;;;;;;;12.68;5.95;;;13.30;99.90;;;;;;5033317;28;20371;-61
2022/06/28 02:20:04;;;;;;;9.25;6.15;;;13.30;99.90;;;;;;5039144;28;20049;-61
2022/06/28 02:22:30;;;;;;;7.80;6.10;;;13.20;99.90;;;;;;5053784;28;20041;-62
2022/06/28 02:24:56;;;;;;;8.45;5.93;;;13.30;99.90;;;;;;5053392;28;20063;-62
2022/06/28 02:27:22;;;;;;;10.02;6.05;;;13.20;99.90;;;;;;5053727;28;20033;-61
2022/06/28 02:29:47;;;;;;;9.13;6.57;;;13.20;99.90;;;;;;5053654;28;20037;-61
2022/06/28 02:32:13;;;;;;;8.40;6.13;;;13.10;99.90;;;;;;5037852;28;20095;-62
2022/06/28 02:40:21;;;;;;;8.98;5.78;;;13.00;99.90;;;;;;5054247;28;20063;-61
2022/06/28 02:42:57;;;;;;;8.25;5.68;;;13.00;99.90;;;;;;5057348;28;20499;-62
2022/06/28 02:45:24;;;;;;;10.40;6.22;;;12.90;99.90;;;;;;5057452;28;20049;-61
2022/06/28 02:47:51;;;;;;;9.52;6.03;;;12.90;99.90;;;;;;5057552;28;20029;-61
2022/06/28 02:50:17;;;;;;;8.32;6.38;;;12.90;99.90;;;;;;5057287;28;20033;-62
2022/06/28 02:52:42;;;;;;;9.60;6.20;;;12.90;99.90;;;;;;5048966;28;20167;-61
2022/06/28 02:55:09;;;;;;;6.60;5.68;;;12.90;99.90;;;;;;5053287;28;20426;-61
2022/06/28 02:57:36;;;;;;;9.48;5.65;;;12.90;99.90;;;;;;5029976;28;20057;-62
2022/06/28 03:00:07;;;;;;;8.65;5.50;;;12.90;99.90;;;;;;5043674;28;20370;-62
2022/06/28 03:02:43;;;;;;;8.98;5.38;;;12.90;99.90;;;;;;5046306;28;20041;-61
2022/06/28 03:05:13;;;;;;;7.65;5.63;;;12.90;99.90;;;;;;5056639;28;20475;-61
2022/06/28 03:07:39;;;;;;;10.95;5.28;;;12.80;99.90;;;;;;5056947;28;20083;-61
2022/06/28 03:10:06;;;;;;;9.98;5.80;;;12.80;99.90;;;;;;5056670;28;20426;-61
2022/06/28 03:12:32;;;;;;;9.82;5.70;;;12.80;99.90;;;;;;5056474;28;20041;-62
2022/06/28 03:14:58;;;;;;;7.07;5.57;;;12.80;99.90;;;;;;5056885;28;20476;-62
2022/06/28 03:17:23;;;;;;;9.32;5.40;;;12.80;99.90;;;;;;5045114;28;20037;-62
2022/06/28 03:19:49;;;;;;;10.88;5.57;;;12.80;99.90;;;;;;5050821;28;20489;-62
2022/06/28 03:22:15;;;;;;;12.43;5.40;;;12.80;99.90;;;;;;5047114;28;20077;-62
2022/06/28 03:24:41;;;;;;;9.10;5.25;;;12.80;99.90;;;;;;5049460;28;20060;-61
2022/06/28 03:27:06;;;;;;;12.63;5.88;;;12.80;99.90;;;;;;5056298;28;20331;-62
2022/06/28 03:29:32;;;;;;;8.82;5.57;;;12.80;99.90;;;;;;5050243;28;20045;-61
2022/06/28 03:31:58;;;;;;;8.73;5.30;;;12.80;99.90;;;;;;5036752;28;20095;-64
2022/06/28 03:34:23;;;;;;;9.60;5.07;;;12.90;99.90;;;;;;5049879;28;20101;-62
2022/06/28 03:36:50;;;;;;;9.57;5.43;;;12.90;99.90;;;;;;5055633;28;20377;-61
2022/06/28 03:39:16;;;;;;;10.55;5.20;;;12.90;99.90;;;;;;5056707;28;20037;-62
2022/06/28 03:41:42;;;;;;;8.20;4.80;;;12.90;99.90;;;;;;5056786;28;20458;-62
2022/06/28 03:44:08;;;;;;;8.95;5.00;;;13.00;99.90;;;;;;5055427;28;20458;-62
2022/06/28 03:46:34;;;;;;;9.45;4.68;;;13.00;99.90;;;;;;5054612;28;20055;-61
2022/06/28 03:48:59;;;;;;;9.27;4.70;;;13.20;99.90;;;;;;5054566;28;20099;-62
2022/06/28 03:51:25;;;;;;;11.30;5.22;;;13.20;99.90;;;;;;5054615;28;20418;-61
2022/06/28 03:53:50;;;;;;;7.43;4.95;;;13.10;99.90;;;;;;5051065;28;20025;-61
2022/06/28 03:56:17;;;;;;;8.65;5.10;;;13.20;99.90;;;;;;5056169;28;20044;-61
2022/06/28 03:58:42;;;;;;;10.75;5.20;;;13.20;99.90;;;;;;5028579;28;20046;-62
2022/06/28 04:01:08;;;;;;;9.18;4.75;;;13.20;99.90;;;;;;5055905;28;20050;-62
2022/06/28 04:03:34;;;;;;;9.70;4.65;;;13.20;99.90;;;;;;5055834;28;20049;-61
2022/06/28 04:06:00;;;;;;;10.23;4.63;;;13.30;99.90;;;;;;5055904;28;20110;-63
2022/06/28 04:08:26;;;;;;;12.00;5.20;;;13.40;99.90;;;;;;5055293;28;20405;-61
2022/06/28 04:11:13;;;;;;;11.63;5.10;;;13.30;99.90;;;;;;5055419;28;20041;-62
2022/06/28 04:13:55;;;;;;;6.88;4.80;;;13.30;99.90;;;;;;5055847;28;20041;-63
2022/06/28 04:16:22;;;;;;;11.60;5.00;;;13.30;99.90;;;;;;5038196;28;20036;-61
2022/06/28 04:18:49;;;;;;;11.00;5.03;;;13.30;99.90;;;;;;5055796;28;20478;-62
2022/06/28 04:21:18;;;;;;;8.73;4.72;;;13.30;99.90;;;;;;5037772;28;20064;-61
2022/06/28 04:23:44;;;;;;;8.23;5.03;;;13.30;99.90;;;;;;5055529;28;20041;-62
2022/06/28 04:26:10;;;;;;;8.52;4.93;;;13.30;99.90;;;;;;5055617;28;20049;-62
2022/06/28 04:28:36;;;;;;;10.00;5.07;;;13.30;99.90;;;;;;5055564;28;20037;-61
2022/06/28 04:31:03;;;;;;;7.63;4.97;;;13.30;99.90;;;;;;5028271;28;20362;-62
2022/06/28 04:33:29;;;;;;;11.65;5.55;;;13.30;99.90;;;;;;5055481;28;20055;-62
2022/06/28 04:35:55;;;;;;;10.65;4.88;;;13.30;99.90;;;;;;5055513;28;20044;-61
2022/06/28 04:38:21;;;;;;;11.55;4.97;;;13.50;99.90;;;;;;5055193;28;20091;-61
2022/06/28 04:40:47;;;;;;;7.97;4.85;;;13.30;99.90;;;;;;5055430;28;20036;-62
2022/06/28 04:43:12;;;;;;;9.52;4.70;;;13.30;99.90;;;;;;5046312;28;20091;-61
2022/06/28 04:45:38;;;;;;;12.05;5.10;;;13.40;99.90;;;;;;5029971;28;20421;-61
2022/06/28 04:48:05;;;;;;;7.80;5.07;;;13.50;99.90;;;;;;5052525;28;20037;-62
2022/06/28 04:50:30;;;;;;;11.88;4.90;;;13.50;99.90;;;;;;5051001;28;20104;-61
2022/06/28 04:52:56;;;;;;;8.60;4.88;;;13.60;99.90;;;;;;5050900;28;20538;-61
2022/06/28 04:55:22;;;;;;;11.65;4.72;;;13.60;99.90;;;;;;5059912;28;20111;-62
2022/06/28 04:57:48;;;;;;;8.10;4.43;;;13.80;99.90;;;;;;5056820;28;20032;-62
2022/06/28 05:00:15;;;;;;;8.85;4.57;;;14.20;99.90;;;;;;5058868;28;20097;-61
2022/06/28 05:02:40;;;;;;;9.77;4.32;;;14.60;99.90;;;;;;5051573;28;20048;-62
2022/06/28 05:05:08;;;;;;;8.63;4.32;;;14.90;99.90;;;;;;5060322;28;20032;-62
2022/06/28 05:07:34;;;;;;;9.55;4.10;;;15.60;99.90;;;;;;5051993;28;20132;-61
2022/06/28 05:10:01;;;;;;;8.95;4.07;;;16.40;99.90;;;;;;5035500;28;20040;-63
2022/06/28 05:12:27;;;;;;;8.80;3.60;;;17.50;99.90;;;;;;5039418;28;20087;-62
2022/06/28 05:14:53;;;;;;;8.57;3.97;;;18.40;99.90;;;;;;5059100;28;20083;-62
2022/06/28 05:17:19;;;;;;;9.73;3.53;;;19.10;99.90;;;;;;5050989;28;20087;-62
2022/06/28 05:19:45;;;;;;;8.07;3.28;;;19.90;99.90;;;;;;5054440;28;20112;-63
2022/06/28 05:22:10;;;;;;;7.15;3.10;;;20.60;99.90;;;;;;5036393;28;20052;-62
2022/06/28 05:24:37;;;;;;;9.73;3.53;;;20.80;99.90;;;;;;5055039;28;20049;-61
2022/06/28 05:27:03;;;;;;;6.47;2.90;;;20.90;99.90;;;;;;5056144;28;20024;-63
2022/06/28 05:29:29;;;;;;;7.10;3.08;;;21.30;99.90;;;;;;5062404;28;20021;-62
2022/06/28 05:31:55;;;;;;;9.23;2.80;;;21.80;99.90;;;;;;5054595;28;20414;-63
2022/06/28 05:34:20;;;;;;;7.38;2.90;;;22.20;99.90;;;;;;5054109;28;20036;-63
2022/06/28 05:36:46;;;;;;;9.15;2.83;;;22.80;99.90;;;;;;5054774;28;20041;-63
2022/06/28 05:39:12;;;;;;;5.80;2.70;;;23.40;99.90;;;;;;5054115;28;20025;-63
2022/06/28 05:41:38;;;;;;;9.20;2.95;;;23.50;99.90;;;;;;5022580;28;20116;-62
2022/06/28 05:44:04;;;;;;;7.38;2.78;;;23.40;99.90;;;;;;5054045;28;20051;-62
2022/06/28 05:46:30;;;;;;;11.57;2.78;;;23.70;99.90;;;;;;5048066;28;20112;-61
2022/06/28 05:48:56;;;;;;;6.15;2.22;;;24.00;99.90;;;;;;5053685;28;20094;-60
2022/06/28 05:51:22;;;;;;;7.85;2.55;;;24.30;99.90;;;;;;5053930;28;20041;-61
2022/06/28 05:53:48;;;;;;;7.78;2.17;;;24.40;99.90;;;;;;5049532;28;20063;-60
2022/06/28 05:56:13;;;;;;;5.18;2.10;;;24.40;99.90;;;;;;5047334;28;20049;-63
2022/06/28 05:58:40;;;;;;;8.43;2.20;;;24.40;99.90;;;;;;5050775;28;20095;-63
2022/06/28 06:01:06;;;;;;;4.22;2.13;;;24.50;99.90;;;;;;5049567;28;20068;-63
2022/06/28 06:03:32;;;;;;;8.88;2.17;;;24.80;99.90;;;;;;5046208;28;20033;-62
2022/06/28 06:05:58;;;;;;;4.00;1.80;;;25.10;99.90;;;;;;5054956;28;20117;-63
2022/06/28 06:08:23;;;;;;;7.43;2.10;;;25.30;99.90;;;;;;5051824;28;20115;-62
2022/06/28 06:10:49;;;;;;;6.38;1.90;;;25.80;99.90;;;;;;5047141;28;20489;-62
2022/06/28 06:13:15;;;;;;;5.53;1.95;;;25.80;99.90;;;;;;5051267;28;20040;-64
2022/06/28 06:15:40;;;;;;;5.05;1.75;;;25.60;99.90;;;;;;5042365;28;20037;-64
2022/06/28 06:18:06;;;;;;;8.98;2.38;;;25.50;99.90;;;;;;5040285;28;20053;-66
2022/06/28 06:20:32;;;;;;;8.25;2.35;;;25.50;99.90;;;;;;5041654;28;20045;-64
2022/06/28 06:22:58;;;;;;;7.15;2.20;;;25.40;99.90;;;;;;5041247;28;20110;-63
2022/06/28 06:25:23;;;;;;;7.38;2.25;;;25.50;99.90;;;;;;5039214;28;20357;-63
2022/06/28 06:27:49;;;;;;;6.93;2.45;;;25.40;99.90;;;;;;5041468;28;20029;-63
2022/06/28 06:30:14;;;;;;;6.90;2.10;;;25.60;99.90;;;;;;5042986;28;20355;-64
2022/06/28 06:32:40;;;;;;;7.57;2.25;;;25.60;99.90;;;;;;5029042;28;20045;-63
2022/06/28 06:35:07;;;;;;;7.38;2.15;;;25.50;99.90;;;;;;5035288;28;20029;-64
2022/06/28 06:37:33;;;;;;;9.63;2.63;;;25.40;99.90;;;;;;5033195;28;20041;-63
2022/06/28 06:40:02;;;;;;;8.73;2.97;;;25.40;99.90;;;;;;5031639;28;20123;-64
2022/06/28 06:42:27;;;;;;;11.27;2.30;;;25.30;99.90;;;;;;5034495;28;20538;-64
2022/06/28 06:44:53;;;;;;;7.43;2.58;;;25.50;99.90;;;;;;5045544;28;20136;-65
2022/06/28 06:47:19;;;;;;;8.15;2.70;;;25.60;99.90;;;;;;5047805;28;20068;-62
2022/06/28 06:49:44;;;;;;;9.80;2.60;;;25.70;99.90;;;;;;5046319;28;20052;-62
2022/06/28 06:52:10;;;;;;;7.22;2.70;;;25.80;99.90;;;;;;5049762;28;20029;-61
2022/06/28 06:54:36;;;;;;;7.80;2.50;;;25.70;99.90;;;;;;5050195;28;20052;-61
2022/06/28 06:57:01;;;;;;;8.82;2.60;;;25.80;99.90;;;;;;5045966;28;20048;-63
2022/06/28 06:59:27;;;;;;;8.55;2.40;;;26.10;99.90;;;;;;5027409;28;20053;-61
2022/06/28 07:01:53;;;;;;;8.85;3.30;;;25.80;99.90;;;;;;5047884;28;20497;-64
2022/06/28 07:04:18;;;;;;;12.60;2.88;;;25.20;99.90;;;;;;5043575;28;20175;-64
2022/06/28 07:06:44;;;;;;;7.25;2.65;;;24.80;99.90;;;;;;5052813;28;20032;-63
2022/06/28 07:09:10;;;;;;;10.70;2.83;;;24.30;99.90;;;;;;5047007;28;20036;-63
2022/06/28 07:11:36;;;;;;;7.40;2.88;;;23.90;99.90;;;;;;5047633;28;20041;-63
2022/06/28 07:14:02;;;;;;;14.38;3.20;;;23.50;99.90;;;;;;5045278;28;20041;-63
2022/06/28 07:16:28;;;;;;;9.43;3.17;;;23.10;99.90;;;;;;5046709;28;20059;-62
2022/06/28 07:18:54;;;;;;;11.82;3.30;;;23.00;99.90;;;;;;5039743;28;20044;-63
2022/06/28 07:21:20;;;;;;;8.80;2.70;;;22.50;99.90;;;;;;5045667;28;20041;-63
2022/06/28 07:23:45;;;;;;;6.97;2.78;;;22.30;99.90;;;;;;5048228;28;20049;-65
2022/06/28 07:26:11;;;;;;;8.10;2.95;;;22.40;99.90;;;;;;5051463;28;20029;-65
2022/06/28 07:28:37;;;;;;;11.68;3.28;;;22.30;99.90;;;;;;5047410;28;20167;-63
2022/06/28 07:31:03;;;;;;;9.15;2.83;;;22.40;99.90;;;;;;5049679;28;20340;-64
2022/06/28 07:33:29;;;;;;;9.43;3.05;;;22.50;99.90;;;;;;5050464;28;20056;-64
2022/06/28 07:35:54;;;;;;;12.30;2.95;;;22.50;99.90;;;;;;5049982;28;20068;-64
2022/06/28 07:38:20;;;;;;;11.48;3.20;;;22.20;99.90;;;;;;5049832;28;20118;-64
2022/06/28 07:40:46;;;;;;;9.68;3.30;;;22.40;99.90;;;;;;5048410;28;20040;-63
2022/06/28 07:43:11;;;;;;;10.77;3.00;;;22.40;99.90;;;;;;5048476;28;20068;-64
2022/06/28 07:45:39;;;;;;;9.30;2.50;;;22.40;99.90;;;;;;5048275;28;20044;-64
2022/06/28 07:48:07;;;;;;;10.43;2.80;;;22.30;99.90;;;;;;5051503;28;20098;-63
2022/06/28 07:53:18;;;;;;;10.45;2.60;;;21.80;99.90;;;;;;5045637;28;20037;-63
2022/06/28 07:55:44;;;;;;;7.85;2.30;;;21.50;99.90;;;;;;5050021;28;20605;-63
2022/06/28 07:58:09;;;;;;;10.98;3.45;;;21.30;99.90;;;;;;5046911;28;20164;-63
2022/06/28 08:00:35;;;;;;;8.85;2.38;;;21.10;99.90;;;;;;5039495;28;20041;-64
2022/06/28 08:03:01;;;;;;;7.70;2.35;;;20.80;99.90;;;;;;5049148;28;20309;-62
2022/06/28 08:05:27;;;;;;;10.57;2.83;;;20.70;99.90;;;;;;5047195;28;20032;-63
2022/06/28 08:07:53;;;;;;;11.10;2.92;;;20.50;99.90;;;;;;5049096;28;20036;-63
2022/06/28 08:10:18;;;;;;;6.60;2.53;;;20.50;99.90;;;;;;5047830;28;20411;-62
2022/06/28 08:12:45;;;;;;;8.82;2.30;;;20.40;99.90;;;;;;5050438;28;20607;-63
2022/06/28 08:15:12;;;;;;;7.43;2.25;;;20.40;99.90;;;;;;5048691;28;20068;-64
2022/06/28 08:17:37;;;;;;;12.95;2.53;;;20.40;99.90;;;;;;5048940;28;20120;-63
2022/06/28 08:20:04;;;;;;;11.68;2.80;;;20.50;99.90;;;;;;5048852;28;20411;-63
2022/06/28 08:22:29;;;;;;;7.82;2.15;;;20.50;99.90;;;;;;5047434;28;20041;-62
2022/06/28 08:24:55;;;;;;;10.85;2.70;;;20.70;99.90;;;;;;5044989;28;20486;-63
2022/06/28 08:27:21;;;;;;;10.63;3.08;;;20.90;99.90;;;;;;5050510;28;20033;-62
2022/06/28 08:29:46;;;;;;;10.07;2.22;;;20.90;99.90;;;;;;5046747;28;20037;-63
2022/06/28 08:32:12;;;;;;;6.95;2.20;;;21.20;99.90;;;;;;5048851;28;20033;-63
2022/06/28 08:34:38;;;;;;;6.97;2.38;;;21.20;99.90;;;;;;5046964;28;20042;-63
2022/06/28 08:37:05;;;;;;;9.85;2.47;;;21.10;99.90;;;;;;5048512;28;20037;-62
2022/06/28 08:39:31;;;;;;;6.70;2.00;;;21.00;99.90;;;;;;5054734;28;20037;-63
2022/06/28 08:42:01;;;;;;;8.50;2.25;;;21.10;99.90;;;;;;5045501;28;20454;-64
2022/06/28 08:44:28;;;;;;;7.63;2.28;;;21.20;99.90;;;;;;5047159;28;20079;-63
2022/06/28 08:46:55;;;;;;;8.60;2.10;;;21.40;99.90;;;;;;5046182;28;20036;-64
2022/06/28 08:49:44;;;;;;;5.63;1.70;;;21.60;99.90;;;;;;5048764;28;20037;-63
2022/06/28 08:52:10;;;;;;;11.73;2.33;;;22.00;99.90;;;;;;5047982;28;20124;-63
2022/06/28 08:54:36;;;;;;;6.10;1.88;;;22.30;99.90;;;;;;5049180;28;20127;-63
2022/06/28 08:57:05;;;;;;;8.30;1.70;;;22.30;99.90;;;;;;5046616;28;20134;-63
2022/06/28 08:59:31;;;;;;;5.03;1.98;;;22.50;99.90;;;;;;5047285;28;21016;-64
2022/06/28 09:01:57;;;;;;;6.00;1.80;;;22.70;99.90;;;;;;5042759;28;20116;-63
2022/06/28 09:04:22;;;;;;;4.97;1.60;;;22.90;99.90;;;;;;5048121;28;20470;-63
2022/06/28 09:06:48;;;;;;;6.43;2.28;;;22.60;99.90;;;;;;5049879;28;20079;-62
2022/06/28 09:09:14;;;;;;;5.82;1.70;;;22.50;99.90;;;;;;5047655;28;20541;-63
2022/06/28 09:11:42;;;;;;;6.22;2.10;;;22.50;99.90;;;;;;5049422;28;20044;-63
2022/06/28 09:14:26;;;;;;;4.78;1.65;;;22.30;99.90;;;;;;5045948;28;20099;-63
2022/06/28 09:16:52;;;;;;;7.18;2.42;;;22.30;99.90;;;;;;5047541;28;20033;-62
2022/06/28 09:19:35;;;;;;;5.85;1.60;;;22.20;99.90;;;;;;5048428;28;20037;-62
2022/06/28 09:22:03;;;;;;;6.47;1.70;;;22.10;99.90;;;;;;5047687;28;20137;-63
2022/06/28 09:24:29;;;;;;;4.75;1.30;;;22.10;99.90;;;;;;5043436;28;20086;-63
2022/06/28 09:27:05;;;;;;;5.95;1.58;;;22.40;99.90;;;;;;5047260;28;20049;-62
2022/06/28 09:29:47;;;;;;;6.32;1.50;;;22.70;99.60;;;;;;5047451;28;20039;-63
2022/06/28 09:32:13;;;;;;;6.65;1.80;;;22.70;99.10;;;;;;5050538;28;20040;-62
2022/06/28 09:35:03;;;;;;;6.50;1.60;;;22.70;98.90;;;;;;5045831;28;20041;-65
2022/06/28 09:37:56;;;;;;;3.50;1.40;;;22.90;97.80;;;;;;5050914;28;20083;-62
2022/06/28 09:40:31;;;;;;;8.45;1.88;;;23.10;98.50;;;;;;5044447;28;20045;-63
2022/06/28 09:43:13;;;;;;;5.20;1.38;;;23.10;98.50;;;;;;5044625;28;20033;-63
2022/06/28 09:45:47;;;;;;;5.05;1.38;;;23.20;97.70;;;;;;5045501;28;20528;-63
2022/06/28 09:48:16;;;;;;;4.95;1.40;;;23.30;98.20;;;;;;5044400;28;20041;-63
2022/06/28 09:50:41;;;;;;;5.55;1.52;;;23.20;98.20;;;;;;5047534;28;20090;-63
2022/06/28 09:53:09;;;;;;;5.55;1.30;;;23.30;98.40;;;;;;5052147;28;20037;-63
2022/06/28 09:55:34;;;;;;;7.22;1.60;;;23.20;98.50;;;;;;5046022;28;20061;-62
2022/06/28 09:58:02;;;;;;;4.18;1.17;;;23.00;97.90;;;;;;5048777;28;20033;-63
2022/06/28 10:00:29;;;;;;;6.55;1.50;;;22.90;97.70;;;;;;5044236;28;20044;-62
2022/06/28 10:02:57;;;;;;;2.53;1.13;;;22.90;97.40;;;;;;5046788;28;20065;-63
2022/06/28 10:05:23;;;;;;;5.13;1.33;;;22.90;98.20;;;;;;5047155;28;20118;-62
2022/06/28 10:07:51;;;;;;;4.28;1.30;;;22.80;97.80;;;;;;5046419;28;20033;-63
2022/06/28 10:10:17;;;;;;;5.63;1.30;;;22.80;97.30;;;;;;5047569;28;20033;-62
2022/06/28 10:15:33;;;;;;;4.22;1.10;;;22.70;97.50;;;;;;5046675;28;20081;-63
2022/06/28 10:17:58;;;;;;;4.43;1.33;;;22.70;97.70;;;;;;5033941;28;20386;-63
2022/06/28 10:20:31;;;;;;;5.65;1.67;;;22.90;98.00;;;;;;5047306;28;20068;-63
2022/06/28 10:23:23;;;;;;;5.30;1.33;;;22.90;97.00;;;;;;5044495;28;20037;-62
2022/06/28 10:26:11;;;;;;;4.07;1.40;;;22.90;97.50;;;;;;5048090;28;20362;-62
2022/06/28 10:28:47;;;;;;;3.85;1.20;;;22.90;97.20;;;;;;5046445;28;20041;-63
2022/06/28 10:31:25;;;;;;;4.15;1.35;;;22.90;97.60;;;;;;5043718;28;20365;-62
2022/06/28 10:33:52;;;;;;;3.15;1.35;;;22.80;97.20;;;;;;5039917;28;20052;-62
2022/06/28 10:36:19;;;;;;;5.00;1.45;;;22.70;97.30;;;;;;5047950;28;20056;-62
2022/06/28 10:39:07;;;;;;;5.20;1.38;;;22.80;97.30;;;;;;5047117;28;20045;-65
2022/06/28 10:41:38;;;;;;;5.07;1.55;;;22.90;97.50;;;;;;5027900;28;20129;-62
2022/06/28 10:44:41;;;;;;;3.17;1.00;;;22.80;97.60;;;;;;5044574;28;20041;-63
2022/06/28 10:47:07;;;;;;;5.37;1.30;;;22.90;97.40;;;;;;5043843;28;20151;-63
2022/06/28 10:49:42;;;;;;;4.35;1.25;;;23.00;97.00;;;;;;5044330;28;20175;-63
2022/06/28 10:52:14;;;;;;;3.53;1.35;;;23.20;96.80;;;;;;5034820;28;20520;-62
2022/06/28 10:54:52;;;;;;;8.00;1.40;;;23.20;96.50;;;;;;5051330;28;20037;-63
2022/06/28 10:57:22;;;;;;;3.60;1.13;;;23.20;96.50;;;;;;5046805;28;20076;-63
2022/06/28 10:59:51;;;;;;;6.30;1.70;;;23.30;96.70;;;;;;5048698;28;20041;-62
2022/06/28 11:02:17;;;;;;;5.97;1.30;;;23.10;96.20;;;;;;5040520;28;20067;-62
2022/06/28 11:04:45;;;;;;;5.32;1.08;;;23.00;96.70;;;;;;5049753;28;20060;-62
2022/06/28 11:07:19;;;;;;;4.70;1.20;;;23.00;97.10;;;;;;5042085;28;20486;-62
2022/06/28 11:09:52;;;;;;;4.47;1.35;;;23.20;96.00;;;;;;5047651;28;20099;-62
2022/06/28 11:12:19;;;;;;;5.27;1.23;;;23.30;95.60;;;;;;5053775;28;20457;-62
2022/06/28 11:14:56;;;;;;;4.65;1.60;;;23.30;95.90;;;;;;5058486;28;20086;-62
2022/06/28 11:17:27;;;;;;;3.67;1.30;;;23.60;95.60;;;;;;5058827;28;20457;-62
2022/06/28 11:19:55;;;;;;;4.78;1.40;;;23.90;95.70;;;;;;5055453;28;20393;-63
2022/06/28 11:22:24;;;;;;;6.38;1.70;;;23.90;95.70;;;;;;5051430;28;20044;-62
2022/06/28 11:24:51;;;;;;;5.05;1.23;;;24.00;95.80;;;;;;5049996;28;20037;-65
2022/06/28 11:27:22;;;;;;;4.40;1.13;;;24.00;95.30;;;;;;5049880;28;20032;-61
2022/06/28 11:30:00;;;;;;;3.95;0.90;;;24.00;95.50;;;;;;5047886;28;20037;-61
2022/06/28 11:32:29;;;;;;;4.97;1.13;;;24.10;95.40;;;;;;5050867;28;20073;-62
2022/06/28 11:35:19;;;;;;;4.78;1.48;;;24.10;95.10;;;;;;5049537;28;20080;-63
2022/06/28 11:37:55;;;;;;;3.45;0.95;;;24.10;94.80;;;;;;5056489;28;20501;-61
2022/06/28 11:40:26;;;;;;;4.75;1.38;;;24.20;95.00;;;;;;5046649;28;20060;-61
2022/06/28 11:43:06;;;;;;;4.47;1.30;;;24.30;94.90;;;;;;5048319;28;20432;-62
2022/06/28 11:45:34;;;;;;;4.90;1.17;;;24.30;94.10;;;;;;5046183;28;20033;-62
2022/06/28 11:48:11;;;;;;;4.03;1.15;;;24.30;94.50;;;;;;5057593;28;20032;-62
2022/06/28 11:50:50;;;;;;;6.25;1.20;;;24.50;94.50;;;;;;5048498;28;20091;-62
2022/06/28 11:53:16;;;;;;;3.38;1.13;;;24.50;94.10;;;;;;5049546;28;20143;-63
2022/06/28 11:55:44;;;;;;;5.05;1.20;;;24.40;94.20;;;;;;5046705;28;20042;-63
2022/06/28 11:58:16;;;;;;;6.32;1.30;;;24.50;94.30;;;;;;5050983;28;20120;-62
2022/06/28 12:01:00;;;;;;;2.63;1.10;;;24.60;94.00;;;;;;5055139;28;20097;-64
2022/06/28 12:03:30;;;;;;;3.38;1.20;;;24.70;94.10;;;;;;5044913;28;20366;-64
2022/06/28 12:05:57;;;;;;;4.68;1.58;;;24.60;93.70;;;;;;5058804;28;20043;-64
2022/06/28 12:08:47;;;;;;;4.30;1.20;;;24.50;93.60;;;;;;5049509;28;20117;-63
2022/06/28 12:11:37;;;;;;;4.47;1.38;;;24.50;94.10;;;;;;5059999;28;20313;-63
2022/06/28 12:14:02;;;;;;;5.45;1.50;;;24.50;93.70;;;;;;5062872;28;20032;-62
2022/06/28 12:16:33;;;;;;;4.90;1.33;;;24.50;93.70;;;;;;5058565;28;20424;-63
2022/06/28 12:19:01;;;;;;;5.22;1.27;;;24.60;93.30;;;;;;5057461;28;20033;-62
2022/06/28 12:21:28;;;;;;;4.07;1.10;;;24.60;93.50;;;;;;5051393;28;20053;-65
2022/06/28 12:23:56;;;;;;;4.18;1.20;;;24.60;93.60;;;;;;5046794;28;20446;-63
2022/06/28 12:26:40;;;;;;;4.05;1.40;;;24.70;93.70;;;;;;5046040;28;20037;-63
2022/06/28 12:29:06;;;;;;;4.65;1.58;;;24.70;93.90;;;;;;5050039;28;20470;-63
2022/06/28 12:31:32;;;;;;;3.75;1.15;;;24.80;93.60;;;;;;5048822;28;20025;-61
2022/06/28 12:33:58;;;;;;;3.28;1.30;;;24.60;93.40;;;;;;5048697;28;20443;-62
2022/06/28 12:36:24;;;;;;;6.35;1.33;;;24.70;93.90;;;;;;5050731;28;20039;-62
2022/06/28 12:38:49;;;;;;;5.53;1.42;;;24.70;93.80;;;;;;5051796;28;20386;-62
2022/06/28 12:41:15;;;;;;;5.63;1.48;;;24.70;93.40;;;;;;5049809;28;20071;-63
2022/06/28 12:43:41;;;;;;;6.25;1.88;;;24.70;93.60;;;;;;5044871;28;20037;-62
2022/06/28 12:46:06;;;;;;;3.83;1.27;;;24.80;93.30;;;;;;5031852;28;20045;-62
2022/06/28 12:48:32;;;;;;;6.90;1.95;;;24.80;93.40;;;;;;5051896;28;20065;-62
2022/06/28 12:50:59;;;;;;;3.45;1.33;;;24.80;93.00;;;;;;5032041;28;20045;-61
2022/06/28 12:53:24;;;;;;;3.88;1.38;;;24.80;93.30;;;;;;5051208;28;20465;-61
2022/06/28 12:55:51;;;;;;;6.57;1.55;;;24.60;92.80;;;;;;5052476;28;20037;-62
2022/06/28 12:58:17;;;;;;;5.50;1.83;;;24.60;92.80;;;;;;5051792;28;20045;-61
2022/06/28 13:00:44;;;;;;;6.10;1.42;;;24.40;92.80;;;;;;5049574;28;20047;-62
2022/06/28 13:03:10;;;;;;;4.05;1.30;;;24.50;93.50;;;;;;5051825;28;20041;-62